Latham, Kansas
Current Conditions -  °F | °C
As of 3:55 AM on Sunday 21 Dec 2014 (Local Time) from KEQA Reporting Station
Overcast Overcast  
Wind Chill: 35°   Ceiling: 800
Heat Index: 41°   Visibility: 10mi
Dew Point: 37°   Wind: 10mph
Humidity: 87%   Direction: 190°S
Pressure: 30.03"   Gusts: 16mph
Location:  37.54°N, 96.64°W
Report Text: KEQA 210955Z AUTO 19009G14KT 10SM OVC008 05/03 A3003 RMK AO2
Loading
Personal Weather Stations






























Interactive Weather Map New forecast layout! Learn more

10-Day Weather Forecast

Advertisements
Track Severe Weather on mobile